Time;durP1;ratioP1;P1;durP2;ratioP2;P2;SDS_P1;SDS_P2;PMS_P1;PMS_P2;Temp;Humidity;BMP_temperature;BMP_pressure;BME280_temperature;BME280_humidity;BME280_pressure;Samples;Min_cycle;Max_cycle;Signal;HPM_P1;HPM_P2
2021/01/03 00:02:08;;;;;;;46.13;29.80;;;4.60;99.90;;;;;;5056524;28;20450;-90
2021/01/03 00:04:34;;;;;;;51.03;29.77;;;4.50;99.90;;;;;;5056655;28;20818;-90
2021/01/03 00:07:01;;;;;;;55.53;33.53;;;4.40;99.90;;;;;;5056822;28;20459;-90
2021/01/03 00:09:28;;;;;;;52.07;29.20;;;4.30;99.90;;;;;;5056497;28;20621;-91
2021/01/03 00:11:55;;;;;;;47.10;29.67;;;4.40;99.90;;;;;;5056021;28;20547;-89
2021/01/03 00:14:22;;;;;;;56.60;33.17;;;4.30;99.90;;;;;;5057172;28;20545;-92
2021/01/03 00:16:52;;;;;;;48.30;29.10;;;4.20;99.90;;;;;;5059145;28;20486;-90
2021/01/03 00:19:31;;;;;;;54.63;33.40;;;4.20;99.90;;;;;;5039587;28;20481;-88
2021/01/03 00:21:57;;;;;;;51.83;31.70;;;4.10;99.90;;;;;;5037380;28;20450;-89
2021/01/03 00:24:44;;;;;;;47.70;30.97;;;4.10;99.90;;;;;;5059179;28;20546;-88
2021/01/03 00:27:11;;;;;;;46.50;30.03;;;4.10;99.90;;;;;;5056945;28;20856;-89
2021/01/03 00:29:37;;;;;;;56.50;30.33;;;4.10;99.90;;;;;;5040563;28;20530;-88
2021/01/03 00:32:06;;;;;;;51.00;31.60;;;4.10;99.90;;;;;;5041923;28;20535;-88
2021/01/03 00:34:33;;;;;;;56.23;30.77;;;4.10;99.90;;;;;;5038380;28;20438;-89
2021/01/03 00:37:01;;;;;;;50.17;30.17;;;4.10;99.90;;;;;;5037935;28;20545;-89
2021/01/03 00:39:27;;;;;;;51.60;31.70;;;4.10;99.90;;;;;;5059983;28;20456;-89
2021/01/03 00:41:53;;;;;;;47.17;29.73;;;4.10;99.90;;;;;;5062866;28;20538;-89
2021/01/03 00:44:23;;;;;;;53.03;30.07;;;4.10;99.90;;;;;;5060542;28;20831;-89
2021/01/03 00:46:49;;;;;;;50.27;29.00;;;4.10;99.90;;;;;;5059520;28;20535;-91
2021/01/03 00:49:16;;;;;;;50.10;29.13;;;4.00;99.90;;;;;;5046892;28;20526;-90
2021/01/03 00:51:42;;;;;;;54.97;35.03;;;4.10;99.90;;;;;;5043340;28;20958;-91
2021/01/03 00:54:09;;;;;;;45.77;31.20;;;4.00;99.90;;;;;;5055291;28;20477;-90
2021/01/03 00:56:35;;;;;;;44.23;29.07;;;4.00;99.90;;;;;;5040806;28;20583;-91
2021/01/03 00:59:02;;;;;;;56.37;31.13;;;4.10;99.90;;;;;;5042745;28;20495;-91
2021/01/03 01:01:29;;;;;;;47.50;31.10;;;4.00;99.90;;;;;;5055050;28;20461;-91
2021/01/03 01:03:55;;;;;;;50.47;30.90;;;4.00;99.90;;;;;;5036720;28;20958;-91
2021/01/03 01:06:24;;;;;;;46.73;28.57;;;4.00;99.90;;;;;;5036013;28;20478;-93
2021/01/03 01:08:51;;;;;;;46.33;29.93;;;4.00;99.90;;;;;;5053158;28;20592;-91
2021/01/03 01:11:18;;;;;;;48.40;31.90;;;4.10;99.90;;;;;;5055234;28;20455;-91
2021/01/03 01:13:45;;;;;;;46.70;29.80;;;4.00;99.90;;;;;;5054359;28;20522;-91
2021/01/03 01:16:11;;;;;;;54.17;33.70;;;4.10;99.90;;;;;;5055609;28;20536;-90
2021/01/03 01:18:39;;;;;;;48.57;30.60;;;3.90;99.90;;;;;;5040089;28;20451;-87
2021/01/03 01:21:06;;;;;;;50.97;30.40;;;4.00;99.90;;;;;;5035765;28;20607;-87
2021/01/03 01:23:33;;;;;;;49.30;30.63;;;4.00;99.90;;;;;;5049583;28;20527;-87
2021/01/03 01:25:59;;;;;;;58.40;35.43;;;4.00;99.90;;;;;;5056675;28;20462;-88
2021/01/03 01:28:26;;;;;;;47.20;28.90;;;4.00;99.90;;;;;;5056480;28;20548;-88
2021/01/03 01:30:52;;;;;;;49.33;30.93;;;4.10;99.90;;;;;;5056411;28;20532;-87
2021/01/03 01:33:19;;;;;;;57.30;32.60;;;4.10;99.90;;;;;;5045837;28;20536;-87
2021/01/03 01:35:47;;;;;;;56.83;34.20;;;4.00;99.90;;;;;;5035615;28;20497;-88
2021/01/03 01:38:13;;;;;;;51.77;33.87;;;4.00;99.90;;;;;;5053804;28;20543;-87
2021/01/03 01:40:40;;;;;;;55.27;32.20;;;3.90;99.90;;;;;;5055254;28;20455;-87
2021/01/03 01:43:09;;;;;;;51.20;33.67;;;3.80;99.90;;;;;;5037461;28;20462;-88
2021/01/03 01:45:39;;;;;;;52.17;32.33;;;3.90;99.90;;;;;;5040311;28;20488;-87
2021/01/03 01:48:09;;;;;;;51.00;29.83;;;3.90;99.90;;;;;;5055085;28;20533;-88
2021/01/03 01:50:40;;;;;;;51.60;32.37;;;3.90;99.90;;;;;;5054756;28;20523;-87
2021/01/03 01:53:13;;;;;;;53.90;32.60;;;3.90;99.90;;;;;;5036269;28;20450;-87
2021/01/03 01:55:45;;;;;;;53.13;32.03;;;3.90;99.90;;;;;;5034948;28;20445;-87
2021/01/03 01:58:20;;;;;;;46.33;30.97;;;3.90;99.90;;;;;;5035955;28;20568;-87
2021/01/03 02:00:54;;;;;;;53.93;32.53;;;3.90;99.90;;;;;;5035172;28;20445;-87
2021/01/03 02:03:28;;;;;;;53.43;31.80;;;3.90;99.90;;;;;;5015805;28;20442;-87
2021/01/03 02:06:00;;;;;;;49.87;31.87;;;3.80;99.90;;;;;;5016458;28;20447;-86
2021/01/03 02:08:32;;;;;;;55.17;34.67;;;3.70;99.90;;;;;;5015846;28;20527;-88
2021/01/03 02:11:00;;;;;;;53.70;31.47;;;3.60;99.90;;;;;;5016021;28;20487;-86
2021/01/03 02:13:30;;;;;;;52.03;32.30;;;3.70;99.90;;;;;;5037244;28;20947;-90
2021/01/03 02:16:00;;;;;;;53.53;33.83;;;3.80;99.90;;;;;;5035359;28;20450;-89
2021/01/03 02:18:28;;;;;;;60.87;32.83;;;3.70;99.90;;;;;;5037104;28;20446;-89
2021/01/03 02:21:10;;;;;;;51.60;31.97;;;3.70;99.90;;;;;;5035598;28;20502;-89
2021/01/03 02:23:50;;;;;;;53.03;32.40;;;3.70;99.90;;;;;;5055760;28;20493;-89
2021/01/03 02:26:20;;;;;;;53.10;32.60;;;3.80;99.90;;;;;;5039742;28;20449;-89
2021/01/03 02:28:46;;;;;;;55.27;33.37;;;3.80;99.90;;;;;;5043688;28;20521;-89
2021/01/03 02:31:18;;;;;;;57.37;36.10;;;3.70;99.90;;;;;;5056267;28;20542;-89
2021/01/03 02:33:47;;;;;;;51.67;33.57;;;3.60;99.90;;;;;;5054954;28;20900;-90
2021/01/03 02:36:19;;;;;;;54.03;32.23;;;3.60;99.90;;;;;;5058696;28;20485;-89
2021/01/03 02:38:54;;;;;;;53.03;31.87;;;3.60;99.90;;;;;;5049166;28;20514;-89
2021/01/03 02:41:22;;;;;;;51.30;30.60;;;3.70;99.90;;;;;;5034052;28;20609;-89
2021/01/03 02:43:49;;;;;;;48.30;30.23;;;3.70;99.90;;;;;;5034893;28;20449;-89
2021/01/03 02:46:15;;;;;;;51.83;30.80;;;3.70;99.90;;;;;;5035170;28;20560;-89
2021/01/03 02:48:42;;;;;;;52.43;30.00;;;3.60;99.90;;;;;;5035492;28;20481;-89
2021/01/03 02:51:09;;;;;;;49.83;30.60;;;3.70;99.90;;;;;;5035635;28;20626;-89
2021/01/03 02:53:35;;;;;;;50.47;29.40;;;3.70;99.90;;;;;;5035287;28;20466;-90
2021/01/03 02:56:01;;;;;;;49.67;29.33;;;3.80;99.90;;;;;;5036272;28;20506;-90
2021/01/03 02:58:29;;;;;;;48.43;28.40;;;3.70;99.90;;;;;;5052232;28;20936;-90
2021/01/03 03:00:55;;;;;;;54.50;31.40;;;3.80;99.90;;;;;;5061038;28;20492;-90
2021/01/03 03:03:22;;;;;;;47.43;30.30;;;3.80;99.90;;;;;;5043452;28;20451;-88
2021/01/03 03:05:48;;;;;;;44.07;28.33;;;3.80;99.90;;;;;;5037752;28;20493;-88
2021/01/03 03:08:14;;;;;;;46.93;28.90;;;3.80;99.90;;;;;;5053518;28;20500;-88
2021/01/03 03:10:41;;;;;;;45.10;26.30;;;3.70;99.90;;;;;;5079339;22;20497;-88
2021/01/03 03:13:07;;;;;;;35.70;25.90;;;3.70;99.90;;;;;;5051913;28;20459;-88
2021/01/03 03:15:34;;;;;;;41.83;26.20;;;3.70;99.90;;;;;;5058637;28;20533;-89
2021/01/03 03:18:02;;;;;;;36.53;25.67;;;3.70;99.90;;;;;;5045534;28;20457;-89
2021/01/03 03:20:29;;;;;;;43.77;27.43;;;3.70;99.90;;;;;;5038495;28;20454;-91
2021/01/03 03:22:55;;;;;;;43.87;27.03;;;3.70;99.90;;;;;;5050160;28;20536;-90
2021/01/03 03:25:23;;;;;;;41.57;25.30;;;3.70;99.90;;;;;;5058385;28;20455;-90
2021/01/03 03:27:49;;;;;;;43.23;27.17;;;3.70;99.90;;;;;;5046794;28;20461;-90
2021/01/03 03:30:19;;;;;;;39.07;24.93;;;3.60;99.90;;;;;;5037981;28;20867;-90
2021/01/03 03:32:51;;;;;;;41.03;25.60;;;3.70;99.90;;;;;;5037043;28;20543;-90
2021/01/03 03:35:19;;;;;;;39.27;24.03;;;3.60;99.90;;;;;;5037611;28;20851;-90
2021/01/03 03:37:45;;;;;;;45.07;27.43;;;3.60;99.90;;;;;;5044171;28;20478;-90
2021/01/03 03:40:13;;;;;;;48.80;27.77;;;3.60;99.90;;;;;;5057797;28;20525;-90
2021/01/03 03:42:39;;;;;;;40.60;27.40;;;3.60;99.90;;;;;;5040938;28;20953;-90
2021/01/03 03:45:07;;;;;;;42.90;25.20;;;3.60;99.90;;;;;;5044038;28;20859;-90
2021/01/03 03:47:33;;;;;;;36.63;23.60;;;3.60;99.90;;;;;;5057201;28;20991;-89
2021/01/03 03:50:01;;;;;;;36.50;23.40;;;3.60;99.90;;;;;;5051874;28;20483;-90
2021/01/03 03:52:30;;;;;;;37.50;23.73;;;3.70;99.90;;;;;;5037891;28;20457;-91
2021/01/03 03:54:56;;;;;;;41.67;25.47;;;3.70;99.90;;;;;;5043035;28;20479;-90
2021/01/03 03:57:23;;;;;;;37.10;25.60;;;3.70;99.90;;;;;;5037972;28;20494;-91
2021/01/03 03:59:49;;;;;;;38.50;24.13;;;3.70;99.90;;;;;;5055679;28;20463;-89
2021/01/03 04:02:16;;;;;;;40.27;26.60;;;3.80;99.90;;;;;;5062521;28;20529;-88
2021/01/03 04:04:44;;;;;;;34.43;22.10;;;3.70;99.90;;;;;;5065853;28;20504;-90
2021/01/03 04:07:12;;;;;;;34.93;23.07;;;3.80;99.90;;;;;;5057141;28;20535;-89
2021/01/03 04:09:38;;;;;;;38.63;23.90;;;3.80;99.90;;;;;;5041161;28;20581;-89
2021/01/03 04:12:05;;;;;;;34.97;23.30;;;3.80;99.90;;;;;;5036637;28;20453;-89
2021/01/03 04:14:31;;;;;;;40.87;24.90;;;3.80;99.90;;;;;;5037004;28;20540;-89
2021/01/03 04:17:00;;;;;;;37.80;22.87;;;3.90;99.90;;;;;;5036639;28;20452;-90
2021/01/03 04:19:31;;;;;;;42.30;25.80;;;3.90;99.90;;;;;;5050842;28;20448;-90
2021/01/03 04:21:59;;;;;;;37.20;22.20;;;3.80;99.90;;;;;;5056854;28;20528;-89
2021/01/03 04:24:32;;;;;;;42.60;26.87;;;3.80;99.90;;;;;;5056459;28;20450;-89
2021/01/03 04:27:00;;;;;;;38.57;24.67;;;3.80;99.90;;;;;;5056782;28;20436;-89
2021/01/03 04:29:27;;;;;;;41.90;24.10;;;3.80;99.90;;;;;;5055958;28;20492;-89
2021/01/03 04:31:55;;;;;;;38.80;25.20;;;3.80;99.90;;;;;;5038767;28;20457;-89
2021/01/03 04:34:21;;;;;;;40.27;25.37;;;3.70;99.90;;;;;;5041552;28;20452;-90
2021/01/03 04:36:50;;;;;;;39.27;26.53;;;3.80;99.90;;;;;;5055118;28;20448;-90
2021/01/03 04:39:16;;;;;;;40.53;25.27;;;3.80;99.90;;;;;;5055309;28;20457;-89
2021/01/03 04:41:44;;;;;;;38.53;23.97;;;3.80;99.90;;;;;;5056467;28;20452;-89
2021/01/03 04:44:17;;;;;;;38.60;23.77;;;3.80;99.90;;;;;;5038884;28;20424;-90
2021/01/03 04:46:44;;;;;;;34.43;25.03;;;3.70;99.90;;;;;;5036525;28;20457;-89
2021/01/03 04:49:20;;;;;;;35.10;22.90;;;3.80;99.90;;;;;;5054027;28;20527;-89
2021/01/03 04:52:21;;;;;;;36.90;24.23;;;3.80;99.90;;;;;;5055409;28;20436;-90
2021/01/03 04:54:53;;;;;;;36.40;22.47;;;3.70;99.90;;;;;;5055560;28;20443;-90
2021/01/03 04:57:31;;;;;;;41.00;25.70;;;3.70;99.90;;;;;;5055798;28;20557;-90
2021/01/03 05:00:00;;;;;;;35.10;22.00;;;3.70;99.90;;;;;;5056299;28;20502;-90
2021/01/03 05:02:58;;;;;;;38.03;22.60;;;3.70;99.90;;;;;;5053588;28;20978;-88
2021/01/03 05:05:33;;;;;;;34.10;21.17;;;3.70;99.90;;;;;;5035975;28;20449;-89
2021/01/03 05:08:13;;;;;;;38.30;23.57;;;3.70;99.90;;;;;;5052630;28;20465;-89
2021/01/03 05:10:40;;;;;;;36.33;21.37;;;3.70;99.90;;;;;;5051783;28;20495;-90
2021/01/03 05:13:22;;;;;;;32.23;20.67;;;3.70;99.90;;;;;;5056126;28;20490;-89
2021/01/03 05:15:49;;;;;;;35.00;20.93;;;3.80;99.90;;;;;;5055152;28;20502;-89
2021/01/03 05:18:16;;;;;;;37.03;21.73;;;3.70;99.90;;;;;;5055520;28;20518;-92
2021/01/03 05:20:42;;;;;;;32.00;20.30;;;3.70;99.90;;;;;;5052758;28;20538;-89
2021/01/03 05:23:17;;;;;;;28.97;20.23;;;3.70;99.90;;;;;;5035688;28;20784;-89
2021/01/03 05:25:46;;;;;;;28.63;19.80;;;3.70;99.90;;;;;;5034903;28;20462;-89
2021/01/03 05:28:22;;;;;;;27.50;18.40;;;3.70;99.90;;;;;;5035184;28;20528;-88
2021/01/03 05:30:49;;;;;;;28.50;17.50;;;3.70;99.90;;;;;;5035947;28;20469;-90
2021/01/03 05:33:24;;;;;;;23.20;14.77;;;3.70;99.90;;;;;;5035655;28;20539;-90
2021/01/03 05:35:51;;;;;;;29.50;17.90;;;3.70;99.90;;;;;;5036080;28;20776;-90
2021/01/03 05:38:38;;;;;;;23.43;15.20;;;3.70;99.90;;;;;;5035463;28;20834;-89
2021/01/03 05:41:15;;;;;;;27.70;16.43;;;3.80;99.90;;;;;;5015246;28;20470;-89
2021/01/03 05:43:43;;;;;;;24.93;15.87;;;3.70;99.90;;;;;;5027756;28;20501;-86
2021/01/03 05:46:19;;;;;;;19.10;12.93;;;3.60;99.90;;;;;;5055392;28;20456;-88
2021/01/03 05:48:58;;;;;;;19.07;13.57;;;3.70;99.90;;;;;;5033866;28;20894;-91
2021/01/03 05:51:37;;;;;;;23.53;13.20;;;3.80;99.90;;;;;;5034812;28;20472;-89
2021/01/03 05:54:06;;;;;;;18.03;13.43;;;3.80;99.90;;;;;;5034458;28;20464;-88
2021/01/03 05:56:35;;;;;;;21.03;12.37;;;3.70;99.90;;;;;;5034636;28;20532;-88
2021/01/03 05:59:03;;;;;;;22.70;13.03;;;3.70;99.90;;;;;;5034929;28;20442;-88
2021/01/03 06:01:33;;;;;;;19.00;12.30;;;3.70;99.90;;;;;;5034523;28;20463;-88
2021/01/03 06:04:07;;;;;;;21.93;12.77;;;3.80;99.90;;;;;;5042241;28;20468;-88
2021/01/03 06:06:47;;;;;;;17.70;12.77;;;3.70;99.90;;;;;;5054866;28;20425;-88
2021/01/03 06:09:15;;;;;;;18.97;12.97;;;3.70;99.90;;;;;;5015271;28;20466;-91
2021/01/03 06:11:57;;;;;;;18.43;13.10;;;3.70;99.90;;;;;;5014248;28;20627;-92
2021/01/03 06:14:26;;;;;;;16.77;11.80;;;3.70;99.90;;;;;;5037186;28;20526;-91
2021/01/03 06:16:52;;;;;;;15.77;11.00;;;3.70;99.90;;;;;;5034401;28;20496;-92
2021/01/03 06:19:35;;;;;;;15.97;10.70;;;3.80;99.90;;;;;;5035521;28;20591;-87
2021/01/03 06:22:10;;;;;;;19.53;10.43;;;3.70;99.90;;;;;;5036363;28;20450;-87
2021/01/03 06:24:40;;;;;;;19.50;11.53;;;3.80;99.90;;;;;;5043915;28;20814;-90
2021/01/03 06:27:14;;;;;;;17.40;11.90;;;3.70;99.90;;;;;;5054485;28;20754;-88
2021/01/03 06:29:47;;;;;;;12.87;10.00;;;3.80;99.90;;;;;;5040973;28;20804;-89
2021/01/03 06:32:38;;;;;;;14.70;10.07;;;3.80;99.90;;;;;;5044718;28;20523;-87
2021/01/03 06:35:13;;;;;;;17.97;10.00;;;3.70;99.90;;;;;;5034003;28;20433;-87
2021/01/03 06:37:45;;;;;;;16.40;10.60;;;3.70;99.90;;;;;;5033749;28;20506;-88
2021/01/03 06:40:16;;;;;;;17.80;11.50;;;3.80;99.90;;;;;;5034086;28;20968;-87
2021/01/03 06:43:23;;;;;;;15.80;10.17;;;3.80;99.90;;;;;;5033156;28;20459;-87
2021/01/03 06:46:21;;;;;;;12.17;8.03;;;3.80;99.90;;;;;;5035807;28;20927;-86
2021/01/03 06:49:09;;;;;;;15.97;10.30;;;3.80;99.90;;;;;;5034136;28;20587;-86
2021/01/03 06:52:10;;;;;;;15.33;8.70;;;3.80;99.90;;;;;;5033567;28;20937;-92
2021/01/03 06:55:09;;;;;;;14.53;9.57;;;3.90;99.90;;;;;;4993501;28;20446;-94
2021/01/03 06:58:07;;;;;;;13.67;8.90;;;3.80;99.90;;;;;;5014746;28;20441;-87
2021/01/03 07:00:42;;;;;;;17.57;10.17;;;3.70;99.90;;;;;;5023850;28;20416;-87
2021/01/03 07:03:14;;;;;;;17.70;10.00;;;3.70;99.90;;;;;;5038523;28;20440;-86
2021/01/03 07:05:50;;;;;;;13.53;9.10;;;3.70;99.90;;;;;;5036398;28;20445;-87
2021/01/03 07:08:19;;;;;;;14.93;8.53;;;3.70;99.90;;;;;;5051696;28;20448;-86
2021/01/03 07:10:45;;;;;;;12.97;9.10;;;3.70;99.90;;;;;;5043624;28;20538;-88
2021/01/03 07:13:39;;;;;;;11.77;7.83;;;3.70;99.90;;;;;;5054041;28;20532;-86
2021/01/03 07:16:09;;;;;;;12.67;8.10;;;3.70;99.90;;;;;;5054510;28;20448;-86
2021/01/03 07:18:49;;;;;;;13.00;8.30;;;3.70;99.90;;;;;;5053237;28;20526;-86
2021/01/03 07:21:37;;;;;;;12.70;8.10;;;3.70;99.90;;;;;;5054203;28;20446;-86
2021/01/03 07:24:28;;;;;;;14.70;7.83;;;3.70;99.90;;;;;;5049470;28;20442;-86
2021/01/03 07:27:20;;;;;;;11.17;7.20;;;3.70;99.90;;;;;;5053507;28;20578;-86
2021/01/03 07:30:00;;;;;;;11.83;8.10;;;3.70;99.90;;;;;;5051684;28;20472;-86
2021/01/03 07:32:42;;;;;;;10.87;7.00;;;3.70;99.90;;;;;;5054531;28;20742;-87
2021/01/03 07:35:12;;;;;;;11.13;7.80;;;3.80;99.90;;;;;;5014226;28;20431;-86
2021/01/03 07:37:39;;;;;;;12.17;8.00;;;3.80;99.90;;;;;;5033005;28;20469;-94
2021/01/03 07:40:07;;;;;;;12.50;7.73;;;3.80;99.90;;;;;;5037861;28;20455;-86
2021/01/03 07:42:35;;;;;;;10.23;7.33;;;3.80;99.90;;;;;;5053120;28;20543;-86
2021/01/03 07:45:15;;;;;;;11.37;7.70;;;3.80;99.90;;;;;;5047660;28;20497;-86
2021/01/03 07:47:44;;;;;;;11.40;6.20;;;3.80;99.90;;;;;;5045191;28;21038;-87
2021/01/03 07:50:27;;;;;;;13.13;8.53;;;3.80;99.90;;;;;;5037488;28;20488;-86
2021/01/03 07:52:55;;;;;;;9.67;6.90;;;3.80;99.90;;;;;;5036839;28;20559;-87
2021/01/03 07:55:29;;;;;;;11.50;7.57;;;3.80;99.90;;;;;;5037776;28;20763;-86
2021/01/03 07:57:58;;;;;;;9.67;7.97;;;3.80;99.90;;;;;;5036818;28;20445;-86
2021/01/03 08:00:25;;;;;;;11.43;7.63;;;3.80;99.90;;;;;;5042189;28;20892;-86
2021/01/03 08:02:57;;;;;;;9.30;6.77;;;3.80;99.90;;;;;;5036936;28;20777;-87
2021/01/03 08:05:25;;;;;;;9.33;6.77;;;3.90;99.90;;;;;;5036977;28;20956;-86
2021/01/03 08:08:00;;;;;;;9.80;6.20;;;3.90;99.90;;;;;;5041582;28;20444;-86
2021/01/03 08:10:26;;;;;;;11.30;7.70;;;3.90;99.90;;;;;;5017611;28;20504;-86
2021/01/03 08:13:00;;;;;;;9.50;6.67;;;3.90;99.90;;;;;;5038648;28;20449;-85
2021/01/03 08:15:30;;;;;;;9.00;6.73;;;3.90;99.90;;;;;;5038359;28;20479;-85
2021/01/03 08:18:02;;;;;;;7.63;6.20;;;3.80;99.90;;;;;;5039607;28;20794;-86
2021/01/03 08:20:29;;;;;;;8.40;6.10;;;3.80;99.90;;;;;;5038389;28;20533;-87
2021/01/03 08:23:09;;;;;;;9.30;6.73;;;3.80;99.90;;;;;;5037197;28;20459;-86
2021/01/03 08:25:35;;;;;;;10.43;6.37;;;3.80;99.90;;;;;;5037308;28;20407;-86
2021/01/03 08:28:07;;;;;;;7.80;6.00;;;3.80;99.90;;;;;;5037048;28;20539;-86
2021/01/03 08:30:35;;;;;;;8.40;6.00;;;3.90;99.90;;;;;;5037065;28;20882;-85
2021/01/03 08:33:08;;;;;;;7.93;5.67;;;3.90;99.90;;;;;;5036983;28;20934;-86
2021/01/03 08:35:35;;;;;;;6.93;5.30;;;3.90;99.90;;;;;;5036260;28;20442;-86
2021/01/03 08:38:01;;;;;;;7.70;4.97;;;4.00;99.90;;;;;;5039761;28;20528;-85
2021/01/03 08:40:31;;;;;;;8.63;5.87;;;3.90;99.90;;;;;;5039244;28;20437;-85
2021/01/03 08:43:03;;;;;;;11.17;6.10;;;3.80;99.90;;;;;;5040715;28;20454;-85
2021/01/03 08:45:32;;;;;;;7.80;5.80;;;3.90;99.90;;;;;;5025007;28;20424;-86
2021/01/03 08:48:05;;;;;;;7.70;5.13;;;3.90;99.90;;;;;;5036959;28;20902;-85
2021/01/03 08:50:34;;;;;;;8.23;5.40;;;3.90;99.90;;;;;;5043075;28;20483;-85
2021/01/03 08:53:06;;;;;;;7.30;5.40;;;3.90;99.90;;;;;;5039875;28;20543;-85
2021/01/03 08:55:34;;;;;;;7.50;4.70;;;3.90;99.90;;;;;;5036350;28;20216;-85
2021/01/03 08:58:16;;;;;;;9.27;5.93;;;3.90;99.90;;;;;;5037606;28;20700;-88
2021/01/03 09:00:46;;;;;;;8.00;5.73;;;3.90;99.90;;;;;;5032754;28;20462;-87
2021/01/03 09:03:16;;;;;;;9.93;5.40;;;4.00;99.90;;;;;;5035958;28;20997;-86
2021/01/03 09:05:46;;;;;;;8.43;5.13;;;4.00;99.90;;;;;;5036223;28;20483;-88
2021/01/03 09:08:24;;;;;;;7.20;5.10;;;4.00;99.90;;;;;;5039814;28;20468;-86
2021/01/03 09:10:52;;;;;;;8.97;4.97;;;4.00;99.90;;;;;;5053892;28;20463;-86
2021/01/03 09:13:25;;;;;;;8.07;5.67;;;4.00;99.90;;;;;;5053711;28;20872;-86
2021/01/03 09:16:08;;;;;;;9.00;5.70;;;4.00;99.90;;;;;;5036261;28;20446;-86
2021/01/03 09:18:43;;;;;;;8.57;6.40;;;3.90;99.90;;;;;;5040775;28;20450;-86
2021/01/03 09:21:12;;;;;;;8.90;5.60;;;3.90;99.90;;;;;;5055451;28;20454;-86
2021/01/03 09:23:42;;;;;;;9.00;4.57;;;3.80;99.90;;;;;;5050422;28;20546;-86
2021/01/03 09:26:10;;;;;;;8.10;4.70;;;3.90;99.90;;;;;;5053270;28;20921;-88
2021/01/03 09:28:39;;;;;;;7.30;5.20;;;3.80;99.90;;;;;;5036541;28;20441;-86
2021/01/03 09:31:13;;;;;;;10.13;5.10;;;3.80;99.90;;;;;;5041141;28;20484;-86
2021/01/03 09:33:45;;;;;;;7.97;5.33;;;3.80;99.90;;;;;;5044367;28;20437;-86
2021/01/03 09:36:43;;;;;;;8.27;5.33;;;3.80;99.90;;;;;;5035126;28;20917;-85
2021/01/03 09:39:44;;;;;;;8.10;4.97;;;3.90;99.90;;;;;;5016133;28;20742;-86
2021/01/03 09:42:31;;;;;;;6.70;5.33;;;3.90;99.90;;;;;;5004465;28;20429;-85
2021/01/03 09:45:05;;;;;;;7.00;4.40;;;3.90;99.90;;;;;;5053328;28;20502;-85
2021/01/03 09:47:37;;;;;;;8.17;5.17;;;3.90;99.90;;;;;;5045395;28;20937;-85
2021/01/03 09:50:15;;;;;;;7.43;5.30;;;4.00;99.90;;;;;;5035945;28;20496;-85
2021/01/03 09:52:46;;;;;;;7.37;4.93;;;4.00;99.90;;;;;;5040979;28;20443;-85
2021/01/03 09:55:19;;;;;;;8.20;5.00;;;4.00;99.90;;;;;;5047636;28;20763;-85
2021/01/03 09:58:01;;;;;;;6.00;4.50;;;4.10;99.90;;;;;;5051161;28;20473;-84
2021/01/03 10:00:47;;;;;;;6.17;4.33;;;4.10;99.90;;;;;;5051407;28;20451;-85
2021/01/03 10:03:16;;;;;;;10.67;6.90;;;4.10;99.90;;;;;;5040439;28;20451;-86
2021/01/03 10:05:45;;;;;;;6.47;4.57;;;4.00;99.90;;;;;;5053839;28;20475;-85
2021/01/03 10:08:18;;;;;;;7.53;4.70;;;4.10;99.90;;;;;;5055129;28;20421;-86
2021/01/03 10:10:48;;;;;;;6.77;4.70;;;4.10;99.90;;;;;;5044533;28;20948;-91
2021/01/03 10:13:16;;;;;;;10.03;5.47;;;4.10;99.90;;;;;;5035350;28;20532;-86
2021/01/03 10:15:44;;;;;;;6.90;4.90;;;4.10;99.90;;;;;;5035520;28;20424;-85
2021/01/03 10:18:27;;;;;;;6.20;4.93;;;4.00;99.90;;;;;;5036332;28;20441;-85
2021/01/03 10:20:53;;;;;;;5.90;4.37;;;4.00;99.90;;;;;;5035660;28;20531;-83
2021/01/03 10:23:33;;;;;;;6.97;4.83;;;4.00;99.90;;;;;;5054857;28;20450;-83
2021/01/03 10:26:01;;;;;;;6.20;4.23;;;4.00;99.90;;;;;;5043865;28;20480;-82
2021/01/03 10:28:28;;;;;;;7.70;4.63;;;4.10;99.90;;;;;;5041876;28;20519;-84
2021/01/03 10:30:54;;;;;;;6.73;4.87;;;4.20;99.90;;;;;;5034705;28;20571;-83
2021/01/03 10:33:21;;;;;;;6.73;5.00;;;4.20;99.90;;;;;;5050609;28;20459;-83
2021/01/03 10:35:47;;;;;;;6.00;4.50;;;4.20;99.90;;;;;;5042825;28;20461;-83
2021/01/03 10:38:14;;;;;;;6.17;4.77;;;4.30;99.90;;;;;;5037048;28;20532;-82
2021/01/03 10:40:40;;;;;;;6.10;4.43;;;4.20;99.90;;;;;;5034918;28;20555;-82
2021/01/03 10:43:07;;;;;;;7.33;4.87;;;4.30;99.90;;;;;;5034202;28;20454;-84
2021/01/03 10:45:34;;;;;;;7.77;5.33;;;4.30;99.90;;;;;;5034485;28;20453;-84
2021/01/03 10:48:00;;;;;;;6.33;3.93;;;4.30;99.90;;;;;;5034142;28;20445;-84
2021/01/03 10:50:32;;;;;;;5.97;4.57;;;4.30;99.90;;;;;;5049213;28;20520;-83
2021/01/03 10:52:59;;;;;;;5.60;4.33;;;4.40;99.90;;;;;;5034641;28;20446;-84
2021/01/03 10:55:25;;;;;;;7.10;4.33;;;4.40;99.90;;;;;;5054423;28;20482;-83
2021/01/03 10:57:56;;;;;;;5.90;4.83;;;4.40;99.90;;;;;;5053792;28;20481;-85
2021/01/03 11:00:25;;;;;;;7.47;4.80;;;4.40;99.90;;;;;;5054210;28;20450;-83
2021/01/03 11:02:51;;;;;;;7.90;4.60;;;4.30;99.90;;;;;;5054838;28;20558;-85
2021/01/03 11:05:19;;;;;;;6.13;4.77;;;4.30;99.90;;;;;;5035153;28;20820;-83
2021/01/03 11:07:45;;;;;;;7.40;4.10;;;4.40;99.90;;;;;;5035685;28;20429;-83
2021/01/03 11:10:14;;;;;;;6.03;3.60;;;4.40;99.90;;;;;;5034108;28;20495;-82
2021/01/03 11:12:40;;;;;;;8.07;5.10;;;4.50;99.90;;;;;;5034882;28;20498;-84
2021/01/03 11:15:18;;;;;;;8.50;4.57;;;4.50;99.90;;;;;;5030980;28;20454;-84
2021/01/03 11:17:46;;;;;;;7.00;4.10;;;4.60;99.90;;;;;;5033626;28;20487;-84
2021/01/03 11:23:09;;;;;;;5.67;4.77;;;4.70;99.90;;;;;;5031687;28;20445;-84
2021/01/03 11:25:35;;;;;;;8.00;4.20;;;4.70;99.90;;;;;;5038200;28;20451;-84
2021/01/03 11:28:02;;;;;;;6.67;5.17;;;4.80;99.90;;;;;;5038091;28;20532;-84
2021/01/03 11:30:31;;;;;;;5.90;4.30;;;4.80;99.90;;;;;;5030278;28;20983;-84
2021/01/03 11:33:02;;;;;;;6.40;4.83;;;4.80;99.90;;;;;;5053905;28;20527;-85
2021/01/03 11:35:57;;;;;;;;;;;;;;;;;;;;;
2021/01/03 11:38:24;;;;;;;7.17;5.57;;;4.70;99.90;;;;;;5038484;28;20454;-84
2021/01/03 11:40:56;;;;;;;8.10;4.70;;;4.70;99.90;;;;;;5059410;28;20876;-83
2021/01/03 11:43:52;;;;;;;6.00;4.87;;;4.60;99.90;;;;;;5058887;28;20489;-83
2021/01/03 11:49:57;;;;;;;5.53;4.80;;;4.50;99.90;;;;;;4861329;29;20446;-83
2021/01/03 11:52:45;;;;;;;8.57;4.90;;;4.60;99.90;;;;;;4949780;28;20452;-82
2021/01/03 11:55:14;;;;;;;8.27;5.43;;;4.60;99.90;;;;;;4991548;28;20509;-83
2021/01/03 11:58:12;;;;;;;7.07;5.23;;;4.60;99.90;;;;;;4976440;28;20874;-83
2021/01/03 12:01:17;;;;;;;;;;;;;;;;;;;;;
2021/01/03 12:03:52;;;;;;;6.30;4.60;;;4.50;99.90;;;;;;5049345;28;20455;-83
2021/01/03 12:06:20;;;;;;;8.80;5.47;;;4.50;99.90;;;;;;5045673;28;20448;-83
2021/01/03 12:08:47;;;;;;;9.30;5.40;;;4.50;99.90;;;;;;5038226;28;20580;-85
2021/01/03 12:11:15;;;;;;;8.67;5.30;;;4.60;99.90;;;;;;5037650;28;20491;-83
2021/01/03 12:13:48;;;;;;;10.50;7.27;;;4.60;99.90;;;;;;5038044;28;20483;-83
2021/01/03 12:16:19;;;;;;;7.30;5.27;;;4.70;99.90;;;;;;5042287;28;20450;-84
2021/01/03 12:18:46;;;;;;;6.60;4.80;;;4.60;99.90;;;;;;5038911;28;20449;-85
2021/01/03 12:21:19;;;;;;;7.67;5.67;;;4.70;99.90;;;;;;5043680;28;20548;-84
2021/01/03 12:23:46;;;;;;;8.60;5.30;;;4.80;99.90;;;;;;5037798;28;20548;-84
2021/01/03 12:26:13;;;;;;;8.10;5.60;;;4.90;99.90;;;;;;5040326;28;20491;-84
2021/01/03 12:28:39;;;;;;;9.40;5.13;;;4.80;99.90;;;;;;5021915;28;20538;-83
2021/01/03 12:31:06;;;;;;;6.27;4.87;;;4.70;99.90;;;;;;5021406;28;20480;-85
2021/01/03 12:33:32;;;;;;;7.83;6.50;;;4.80;99.90;;;;;;5039310;28;20475;-83
2021/01/03 12:35:58;;;;;;;7.23;6.10;;;4.80;99.90;;;;;;5024596;28;20455;-84
2021/01/03 12:38:25;;;;;;;8.23;6.50;;;4.70;99.90;;;;;;5039668;28;20455;-83
2021/01/03 12:40:55;;;;;;;7.10;5.23;;;4.70;99.90;;;;;;5039853;28;20547;-92
2021/01/03 12:43:21;;;;;;;8.70;5.90;;;4.70;99.90;;;;;;5039787;28;20585;-83
2021/01/03 12:45:48;;;;;;;9.70;6.87;;;4.70;99.90;;;;;;5032252;28;20509;-84
2021/01/03 12:48:14;;;;;;;7.80;5.60;;;4.80;99.90;;;;;;5034998;28;20924;-83
2021/01/03 12:50:41;;;;;;;9.13;6.80;;;4.80;99.90;;;;;;5036587;28;20580;-84
2021/01/03 12:53:07;;;;;;;6.73;5.53;;;4.80;99.90;;;;;;5041274;28;20484;-81
2021/01/03 12:55:39;;;;;;;9.40;6.10;;;4.70;99.90;;;;;;5040199;28;20542;-82
2021/01/03 12:58:06;;;;;;;9.00;6.37;;;4.80;99.90;;;;;;5018436;28;20437;-83
2021/01/03 13:00:34;;;;;;;9.70;7.57;;;4.70;99.90;;;;;;5031993;28;20476;-83
2021/01/03 13:03:01;;;;;;;10.13;6.97;;;4.70;99.90;;;;;;5035038;28;20538;-83
2021/01/03 13:05:27;;;;;;;10.23;6.90;;;4.70;99.90;;;;;;5036091;28;20453;-83
2021/01/03 13:07:54;;;;;;;11.77;7.17;;;4.80;99.90;;;;;;5035913;28;20451;-84
2021/01/03 13:10:20;;;;;;;11.43;6.90;;;4.80;99.90;;;;;;5034520;28;20576;-83
2021/01/03 13:12:46;;;;;;;10.63;7.73;;;4.70;99.90;;;;;;5035754;28;20481;-82
2021/01/03 13:15:14;;;;;;;9.53;6.83;;;4.70;99.90;;;;;;5034438;28;20671;-82
2021/01/03 13:17:41;;;;;;;11.20;6.87;;;4.70;99.90;;;;;;5033191;28;20462;-82